Taipak, Kazakhstan
Current Conditions -  °F | °C
As of 5:00 AM on Sunday 26 Oct 2014 (Local Time) from UATG Reporting Station
Broken Clouds Broken Clouds  
Wind Chill:   Ceiling: 3300
Heat Index: 19°   Visibility: 6mi
Dew Point: 14°   Wind: 11mph
Humidity: 80%   Direction: 310°NW
Pressure: 30.48"   Gusts: NA
Location:  49.05°N, 51.87°E
Report Text: UATG 260100Z 31005MPS 9999 BKN033CB M07/M10 Q1032 R32/CLRD70NOSIG RMK QFE776/1035
Loading
Personal Weather Stations






























Interactive Weather Map New forecast layout! Learn more

10-Day Weather Forecast

Advertisements
Track Severe Weather on mobile